Time;durP1;ratioP1;P1;durP2;ratioP2;P2;SDS_P1;SDS_P2;PMS_P1;PMS_P2;Temp;Humidity;BMP_temperature;BMP_pressure;BME280_temperature;BME280_humidity;BME280_pressure;Samples;Min_cycle;Max_cycle;Signal;HPM_P1;HPM_P2
2023/05/01 00:01:33;;;;;;;9.50;8.35;;;11.10;99.90;;;10.06;100.00;97276.28;4934059;29;20415;-73
2023/05/01 00:03:59;;;;;;;14.07;9.18;;;11.00;99.90;;;10.05;100.00;97274.69;4935244;29;20466;-73
2023/05/01 00:06:27;;;;;;;9.77;8.20;;;11.00;99.90;;;10.02;100.00;97273.31;4935239;29;20494;-74
2023/05/01 00:08:52;;;;;;;13.85;9.50;;;11.00;99.90;;;10.04;100.00;97275.72;4935258;29;20918;-73
2023/05/01 00:11:18;;;;;;;9.95;7.88;;;11.00;99.90;;;10.07;100.00;97269.94;4933755;29;20439;-75
2023/05/01 00:13:44;;;;;;;10.90;8.07;;;11.00;99.90;;;9.96;100.00;97265.59;4934996;29;20498;-73
2023/05/01 00:16:11;;;;;;;10.90;8.23;;;10.90;99.90;;;9.92;100.00;97259.22;4933599;29;20412;-74
2023/05/01 00:18:38;;;;;;;12.35;9.07;;;10.90;99.90;;;9.91;100.00;97262.91;4935108;29;20475;-74
2023/05/01 00:21:04;;;;;;;11.93;8.77;;;10.90;99.90;;;9.92;100.00;97253.94;4934777;29;20793;-74
2023/05/01 00:23:32;;;;;;;10.07;7.83;;;10.80;99.90;;;9.85;100.00;97251.47;4935191;29;20467;-74
2023/05/01 00:25:58;;;;;;;10.93;7.93;;;10.80;99.90;;;9.81;100.00;97254.84;4934809;29;20407;-74
2023/05/01 00:28:24;;;;;;;10.45;8.15;;;10.80;99.90;;;9.78;100.00;97253.50;4934940;29;20420;-74
2023/05/01 00:30:50;;;;;;;10.15;8.65;;;10.80;99.90;;;9.78;100.00;97250.06;4934622;29;20420;-74
2023/05/01 00:33:16;;;;;;;10.07;7.97;;;10.70;99.90;;;9.76;100.00;97247.69;4934721;29;20454;-74
2023/05/01 00:35:43;;;;;;;10.27;8.50;;;10.70;99.90;;;9.71;100.00;97245.78;4934673;29;20447;-74
2023/05/01 00:38:09;;;;;;;9.38;7.55;;;10.70;99.90;;;9.70;100.00;97246.81;4934776;29;20934;-74
2023/05/01 00:40:42;;;;;;;13.05;8.70;;;10.70;99.90;;;9.71;100.00;97240.47;4934679;29;20506;-73
2023/05/01 00:43:09;;;;;;;10.40;7.80;;;10.70;99.90;;;9.74;100.00;97236.56;4934525;29;20420;-73
2023/05/01 00:45:35;;;;;;;9.60;7.53;;;10.60;99.90;;;9.63;100.00;97234.84;4933061;29;20419;-73
2023/05/01 00:48:01;;;;;;;9.98;8.15;;;10.60;99.90;;;9.60;100.00;97225.59;4934864;29;20420;-74
2023/05/01 00:50:28;;;;;;;10.45;7.72;;;10.60;99.90;;;9.61;100.00;97232.47;4934654;29;20434;-74
2023/05/01 00:52:54;;;;;;;13.27;7.82;;;10.60;99.90;;;9.60;100.00;97227.44;4934613;29;20423;-74
2023/05/01 00:55:21;;;;;;;10.60;7.72;;;10.50;99.90;;;9.56;100.00;97223.66;4933504;29;20424;-74
2023/05/01 00:57:49;;;;;;;13.65;7.97;;;10.60;99.90;;;9.57;100.00;97225.28;4934649;29;20416;-74
2023/05/01 01:00:16;;;;;;;11.38;8.85;;;10.50;99.90;;;9.52;100.00;97226.03;4934612;29;20774;-74
2023/05/01 01:02:42;;;;;;;12.18;8.00;;;10.50;99.90;;;9.55;100.00;97222.88;4934673;29;20809;-74
2023/05/01 01:05:08;;;;;;;10.82;8.27;;;10.50;99.90;;;9.49;100.00;97223.06;4934686;29;20502;-73
2023/05/01 01:07:46;;;;;;;12.98;8.48;;;10.40;99.90;;;9.45;100.00;97219.34;4932401;29;20412;-74
2023/05/01 01:10:23;;;;;;;13.80;9.00;;;10.40;99.90;;;9.46;100.00;97211.16;4933379;29;20518;-73
2023/05/01 01:13:01;;;;;;;14.05;8.90;;;10.40;99.90;;;9.47;100.00;97206.69;4932800;29;20423;-74
2023/05/01 01:15:34;;;;;;;11.77;8.23;;;10.50;99.90;;;9.48;100.00;97203.78;4933897;29;20416;-73
2023/05/01 01:18:09;;;;;;;10.70;8.30;;;10.40;99.90;;;9.46;100.00;97208.53;4934245;29;20418;-74
2023/05/01 01:20:40;;;;;;;10.85;7.70;;;10.50;99.90;;;9.47;100.00;97202.16;4934094;29;20511;-74
2023/05/01 01:23:46;;;;;;;11.00;7.57;;;10.40;99.90;;;9.47;100.00;97199.53;4934099;29;20442;-74
2023/05/01 01:26:45;;;;;;;11.48;8.23;;;10.50;99.90;;;9.45;100.00;97195.56;4933863;29;20415;-74
2023/05/01 01:29:57;;;;;;;14.03;8.53;;;10.40;99.90;;;9.45;100.00;97204.28;4933883;29;20431;-74
2023/05/01 01:33:22;;;;;;;10.30;8.30;;;10.30;99.90;;;9.39;100.00;97205.28;4893581;29;20815;-74
2023/05/01 01:35:56;;;;;;;11.35;9.05;;;10.40;99.90;;;9.41;100.00;97195.25;4893571;29;20526;-74
2023/05/01 01:38:30;;;;;;;12.32;8.90;;;10.40;99.90;;;9.46;100.00;97199.78;4932666;29;20451;-74
2023/05/01 01:41:04;;;;;;;11.85;9.15;;;10.40;99.90;;;9.46;100.00;97190.03;4933632;29;20427;-74
2023/05/01 01:43:37;;;;;;;10.70;8.80;;;10.40;99.90;;;9.50;100.00;97192.97;4932195;29;20412;-74
2023/05/01 01:46:07;;;;;;;10.90;9.02;;;10.50;99.90;;;9.51;100.00;97197.19;4933721;29;20946;-74
2023/05/01 01:48:37;;;;;;;11.95;8.63;;;10.50;99.90;;;9.55;100.00;97198.28;4932356;29;20416;-74
2023/05/01 01:51:09;;;;;;;11.00;8.75;;;10.50;99.90;;;9.57;100.00;97197.00;4933497;29;20436;-74
2023/05/01 01:53:36;;;;;;;14.10;9.68;;;10.50;99.90;;;9.58;100.00;97192.50;4933640;29;20410;-74
2023/05/01 01:56:05;;;;;;;17.10;9.50;;;10.60;99.90;;;9.60;100.00;97193.88;4933409;29;20490;-74
2023/05/01 01:58:34;;;;;;;11.63;9.07;;;10.60;99.90;;;9.59;100.00;97189.63;4933633;29;20389;-74
2023/05/01 02:01:02;;;;;;;13.70;9.25;;;10.60;99.90;;;9.58;100.00;97193.31;4933487;29;20431;-74
2023/05/01 02:03:30;;;;;;;11.52;8.80;;;10.50;99.90;;;9.57;100.00;97185.63;4931531;29;20914;-74
2023/05/01 02:05:59;;;;;;;10.80;8.07;;;10.50;99.90;;;9.51;100.00;97184.00;4933506;29;20920;-73
2023/05/01 02:08:29;;;;;;;10.98;8.98;;;10.50;99.90;;;9.50;100.00;97175.25;4933929;29;20809;-74
2023/05/01 02:10:58;;;;;;;11.30;8.70;;;10.50;99.90;;;9.51;100.00;97176.84;4933483;29;20431;-75
2023/05/01 02:13:27;;;;;;;13.13;9.70;;;10.50;99.90;;;9.54;100.00;97175.56;4933582;29;20403;-75
2023/05/01 02:15:55;;;;;;;13.80;9.20;;;10.50;99.90;;;9.53;100.00;97172.13;4933495;29;20404;-75
2023/05/01 02:18:21;;;;;;;13.32;8.43;;;10.50;99.90;;;9.52;100.00;97164.44;4933449;29;20410;-75
2023/05/01 02:20:48;;;;;;;11.52;8.60;;;10.50;99.90;;;9.52;100.00;97164.44;4933340;29;20451;-75
2023/05/01 02:23:15;;;;;;;9.65;8.18;;;10.50;99.90;;;9.51;100.00;97166.28;4937171;29;20419;-75
2023/05/01 02:25:44;;;;;;;10.38;8.45;;;10.50;99.90;;;9.55;100.00;97163.94;4937051;29;20413;-75
2023/05/01 02:28:15;;;;;;;16.07;9.97;;;10.50;99.90;;;9.57;100.00;97167.94;4932712;29;20461;-75
2023/05/01 02:30:41;;;;;;;12.27;9.90;;;10.50;99.90;;;9.63;100.00;97158.19;4917913;29;20447;-75
2023/05/01 02:33:07;;;;;;;11.18;9.30;;;10.60;99.90;;;9.66;100.00;97160.34;4916899;29;20428;-76
2023/05/01 02:35:38;;;;;;;13.48;9.68;;;10.60;99.90;;;9.66;100.00;97160.34;4918080;29;20476;-74
2023/05/01 02:38:05;;;;;;;11.23;9.65;;;10.60;99.90;;;9.66;100.00;97153.22;4918012;29;20409;-74
2023/05/01 02:40:31;;;;;;;14.48;9.68;;;10.60;99.90;;;9.67;100.00;97154.03;4918005;29;20464;-75
2023/05/01 02:43:03;;;;;;;13.82;9.02;;;10.60;99.90;;;9.67;100.00;97146.09;4917857;29;20475;-75
2023/05/01 02:45:31;;;;;;;12.50;9.07;;;10.60;99.90;;;9.61;100.00;97142.63;4916292;29;20880;-75
2023/05/01 02:48:00;;;;;;;14.50;10.23;;;10.60;99.90;;;9.59;100.00;97138.63;4916444;29;20434;-76
2023/05/01 02:50:27;;;;;;;12.68;9.40;;;10.50;99.90;;;9.57;100.00;97143.34;4916196;29;20533;-75
2023/05/01 02:52:53;;;;;;;13.02;8.80;;;10.50;99.90;;;9.56;100.00;97139.91;4916387;29;20409;-75
2023/05/01 02:55:19;;;;;;;11.18;8.77;;;10.50;99.90;;;9.52;100.00;97141.47;4917650;29;20441;-75
2023/05/01 02:57:46;;;;;;;13.88;9.88;;;10.50;99.90;;;9.52;100.00;97135.38;4917361;29;20772;-75
2023/05/01 03:00:13;;;;;;;12.45;8.95;;;10.50;99.90;;;9.53;100.00;97132.50;4917462;29;20409;-75
2023/05/01 03:02:39;;;;;;;12.73;8.98;;;10.50;99.90;;;9.53;100.00;97129.06;4917471;29;20415;-75
2023/05/01 03:05:06;;;;;;;13.32;8.40;;;10.50;99.90;;;9.53;100.00;97135.16;4917312;29;20832;-75
2023/05/01 03:07:35;;;;;;;11.45;9.23;;;10.50;99.90;;;9.54;100.00;97133.31;4917331;29;20756;-75
2023/05/01 03:10:02;;;;;;;11.23;8.43;;;10.50;99.90;;;9.55;100.00;97140.16;4917111;29;20981;-75
2023/05/01 03:12:28;;;;;;;13.37;9.27;;;10.50;99.90;;;9.55;100.00;97134.88;4917296;29;20824;-75
2023/05/01 03:14:55;;;;;;;13.00;8.90;;;10.50;99.90;;;9.55;100.00;97138.31;4917074;29;20413;-75
2023/05/01 03:17:22;;;;;;;10.37;8.47;;;10.50;99.90;;;9.57;100.00;97133.59;4916970;29;20876;-75
2023/05/01 03:19:48;;;;;;;11.00;8.68;;;10.50;99.90;;;9.59;100.00;97131.50;4917011;29;20415;-75
2023/05/01 03:22:15;;;;;;;10.73;8.43;;;10.50;99.90;;;9.61;100.00;97129.41;4917021;29;20522;-75
2023/05/01 03:24:41;;;;;;;13.43;9.10;;;10.50;99.90;;;9.60;100.00;97133.09;4917035;29;20472;-75
2023/05/01 03:27:07;;;;;;;9.98;8.05;;;10.50;99.90;;;9.58;100.00;97129.09;4916818;29;20496;-75
2023/05/01 03:29:33;;;;;;;9.98;8.20;;;10.50;99.90;;;9.57;100.00;97132.78;4916955;29;20481;-75
2023/05/01 03:31:59;;;;;;;10.05;8.40;;;10.50;99.90;;;9.56;100.00;97129.34;4916828;29;20414;-75
2023/05/01 03:34:26;;;;;;;11.48;8.93;;;10.50;99.90;;;9.60;100.00;97129.66;4916290;29;20521;-75
2023/05/01 03:36:53;;;;;;;12.05;9.18;;;10.50;99.90;;;9.63;100.00;97132.56;4916665;29;20865;-75
2023/05/01 03:39:19;;;;;;;12.50;10.30;;;10.60;99.90;;;9.66;100.00;97118.88;4916806;29;20410;-75
2023/05/01 03:41:44;;;;;;;11.95;8.68;;;10.60;99.90;;;9.67;100.00;97131.03;4916504;29;20425;-75
2023/05/01 03:44:10;;;;;;;11.50;9.55;;;10.60;99.90;;;9.66;100.00;97120.72;4916916;29;20472;-75
2023/05/01 03:46:36;;;;;;;11.68;8.85;;;10.60;99.90;;;9.62;100.00;97117.75;4916132;29;20500;-75
2023/05/01 03:49:02;;;;;;;12.13;9.20;;;10.50;99.90;;;9.60;100.00;97121.72;4916382;29;20480;-75
2023/05/01 03:51:30;;;;;;;12.10;9.10;;;10.50;99.90;;;9.57;100.00;97117.72;4916316;29;20449;-75
2023/05/01 03:53:57;;;;;;;10.90;8.67;;;10.50;99.90;;;9.56;100.00;97110.84;4928373;29;20421;-77
2023/05/01 03:56:25;;;;;;;12.68;9.68;;;10.50;99.90;;;9.56;100.00;97112.69;4916596;29;20445;-77
2023/05/01 03:58:50;;;;;;;11.23;9.57;;;10.50;99.90;;;9.55;100.00;97109.25;4915722;29;20507;-77
2023/05/01 04:01:17;;;;;;;12.17;9.60;;;10.50;99.90;;;9.55;100.00;97111.88;4910951;29;20420;-77
2023/05/01 04:03:43;;;;;;;12.95;9.35;;;10.50;99.90;;;9.54;100.00;97109.53;4914668;29;20836;-77
2023/05/01 04:06:09;;;;;;;10.77;8.75;;;10.50;99.90;;;9.55;100.00;97111.09;4916370;29;20405;-76
2023/05/01 04:08:36;;;;;;;11.38;9.20;;;10.50;99.90;;;9.56;100.00;97108.19;4916204;29;20428;-76
2023/05/01 04:11:02;;;;;;;12.13;8.90;;;10.50;99.90;;;9.58;100.00;97110.59;4915840;29;20515;-77
2023/05/01 04:13:28;;;;;;;11.45;9.35;;;10.50;99.90;;;9.59;100.00;97115.63;4917746;29;20413;-77
2023/05/01 04:15:56;;;;;;;12.25;9.15;;;10.50;99.90;;;9.61;100.00;97102.19;4931220;29;20926;-76
2023/05/01 04:18:22;;;;;;;12.90;9.82;;;10.50;99.90;;;9.62;100.00;97115.13;4916408;29;20413;-77
2023/05/01 04:20:48;;;;;;;13.37;9.77;;;10.60;99.90;;;9.65;100.00;97109.34;4916156;29;20824;-75
2023/05/01 04:23:14;;;;;;;13.32;9.70;;;10.60;99.90;;;9.67;100.00;97109.09;4915937;29;20472;-74
2023/05/01 04:25:41;;;;;;;12.38;10.27;;;10.60;99.90;;;9.68;100.00;97105.41;4915820;29;20410;-74
2023/05/01 04:28:09;;;;;;;13.57;11.20;;;10.60;99.90;;;9.69;100.00;97107.00;4916070;29;20760;-74
2023/05/01 04:30:35;;;;;;;11.63;8.93;;;10.60;99.90;;;9.72;100.00;97114.41;4915910;29;20452;-75
2023/05/01 04:33:02;;;;;;;12.60;10.02;;;10.70;99.90;;;9.70;100.00;97113.88;4915811;29;20970;-74
2023/05/01 04:35:28;;;;;;;10.95;9.40;;;10.60;99.90;;;9.71;100.00;97105.69;4915648;29;20418;-74
2023/05/01 04:37:54;;;;;;;12.10;9.43;;;10.60;99.90;;;9.73;100.00;97105.44;4915814;29;20484;-75
2023/05/01 04:40:20;;;;;;;13.90;9.85;;;10.70;99.90;;;9.75;100.00;97119.22;4920879;29;20468;-75
2023/05/01 04:42:48;;;;;;;12.70;9.80;;;10.70;99.90;;;9.76;100.00;97120.81;4919929;29;20413;-75
2023/05/01 04:45:15;;;;;;;13.15;10.43;;;10.70;99.90;;;9.79;100.00;97122.94;4916989;29;20417;-74
2023/05/01 04:47:40;;;;;;;12.77;9.93;;;10.70;99.90;;;9.81;100.00;97114.75;4915618;29;20776;-75
2023/05/01 04:50:07;;;;;;;13.63;10.27;;;10.70;99.90;;;9.81;100.00;97117.41;4921931;29;21167;-74
2023/05/01 04:52:34;;;;;;;13.65;9.88;;;10.70;99.90;;;9.80;100.00;97113.97;4934398;29;20925;-74
2023/05/01 04:55:01;;;;;;;16.77;9.77;;;10.70;99.90;;;9.79;100.00;97116.84;4926856;29;20413;-74
2023/05/01 04:57:27;;;;;;;12.67;9.47;;;10.70;99.90;;;9.76;100.00;97107.59;4914775;29;20938;-74
2023/05/01 04:59:54;;;;;;;12.00;9.30;;;10.70;99.90;;;9.76;100.00;97115.53;4914120;29;20413;-74
2023/05/01 05:02:20;;;;;;;10.90;9.27;;;10.70;99.90;;;9.78;100.00;97115.25;4914915;29;20992;-76
2023/05/01 05:04:46;;;;;;;10.40;8.83;;;10.70;99.90;;;9.81;100.00;97114.75;4915127;29;20416;-74
2023/05/01 05:07:12;;;;;;;11.30;9.05;;;10.70;99.90;;;9.84;100.00;97117.72;4914405;29;20469;-76
2023/05/01 05:09:38;;;;;;;11.52;9.75;;;10.70;99.90;;;9.90;100.00;97119.34;4922343;29;20431;-76
2023/05/01 05:12:04;;;;;;;13.67;9.37;;;10.80;99.90;;;9.91;100.00;97123.56;4919182;29;20772;-75
2023/05/01 05:14:30;;;;;;;10.43;8.90;;;10.80;99.90;;;9.94;100.00;97119.63;4915018;29;20492;-75
2023/05/01 05:16:57;;;;;;;11.60;9.25;;;10.80;99.90;;;9.97;100.00;97119.91;4913964;29;20425;-75
2023/05/01 05:19:23;;;;;;;11.82;8.90;;;10.90;99.90;;;10.01;100.00;97112.25;4914306;29;20412;-75
2023/05/01 05:21:49;;;;;;;11.57;8.77;;;10.90;99.90;;;10.05;100.00;97116.81;4914052;29;20767;-75
2023/05/01 05:24:15;;;;;;;11.70;9.07;;;10.90;99.90;;;10.08;100.00;97118.13;4914271;29;20528;-75
2023/05/01 05:26:41;;;;;;;11.40;8.35;;;11.00;99.90;;;10.10;100.00;97118.69;4915627;29;20413;-75
2023/05/01 05:29:07;;;;;;;11.13;9.15;;;11.00;99.90;;;10.12;100.00;97119.22;4924343;29;20788;-75
2023/05/01 05:31:33;;;;;;;11.35;9.25;;;11.00;99.90;;;10.13;100.00;97117.38;4929440;29;20420;-75
2023/05/01 05:34:00;;;;;;;14.17;10.03;;;11.00;99.90;;;10.10;100.00;97122.13;4925699;29;20424;-75
2023/05/01 05:36:26;;;;;;;12.43;9.70;;;11.00;99.90;;;10.05;100.00;97113.38;4928470;29;20836;-75
2023/05/01 05:38:52;;;;;;;11.95;9.60;;;10.90;99.90;;;9.99;100.00;97128.41;4914156;29;20758;-75
2023/05/01 05:41:18;;;;;;;12.57;9.60;;;10.90;99.90;;;9.98;100.00;97131.28;4913744;29;20424;-75
2023/05/01 05:43:44;;;;;;;12.75;9.52;;;10.90;99.90;;;9.97;100.00;97129.69;4913790;29;20409;-75
2023/05/01 05:46:10;;;;;;;14.43;10.45;;;10.90;99.90;;;9.97;100.00;97121.75;4913741;29;20508;-75
2023/05/01 05:48:36;;;;;;;13.77;10.10;;;10.90;99.90;;;9.95;100.00;97131.78;4914294;29;20413;-74
2023/05/01 05:51:03;;;;;;;13.20;10.30;;;10.80;99.90;;;9.93;100.00;97129.38;4914228;29;20604;-75
2023/05/01 05:53:30;;;;;;;13.73;10.23;;;10.80;99.90;;;9.91;100.00;97123.56;4928940;29;20465;-75
2023/05/01 05:55:56;;;;;;;14.95;9.90;;;10.80;99.90;;;9.88;100.00;97121.44;4914353;29;20441;-74
2023/05/01 05:58:23;;;;;;;13.63;10.33;;;10.80;99.90;;;9.85;100.00;97121.16;4918343;29;20570;-74
2023/05/01 06:00:50;;;;;;;12.27;10.05;;;10.80;99.90;;;9.92;100.00;97124.38;4918159;29;20413;-75
2023/05/01 06:03:16;;;;;;;15.55;10.55;;;10.80;99.90;;;9.93;100.00;97118.81;4918177;29;20416;-75
2023/05/01 06:05:43;;;;;;;12.75;9.80;;;10.80;99.90;;;9.96;100.00;97118.31;4917969;29;21214;-75
2023/05/01 06:08:10;;;;;;;12.13;9.35;;;10.80;99.90;;;10.02;100.00;97124.44;4917379;29;20421;-75
2023/05/01 06:10:38;;;;;;;13.02;9.70;;;10.90;99.90;;;10.10;100.00;97130.06;4917273;29;20424;-75
2023/05/01 06:13:04;;;;;;;11.60;9.43;;;11.00;99.90;;;10.19;100.00;97121.69;4917959;29;21069;-75
2023/05/01 06:15:30;;;;;;;10.82;9.05;;;11.10;99.90;;;10.30;100.00;97126.00;4916422;29;20424;-75
2023/05/01 06:17:56;;;;;;;12.27;9.63;;;11.20;99.90;;;10.40;100.00;97128.69;4916762;29;20417;-75
2023/05/01 06:20:22;;;;;;;11.85;9.55;;;11.30;99.90;;;10.47;100.00;97122.13;4917734;29;20424;-75
2023/05/01 06:22:48;;;;;;;14.43;11.95;;;11.30;99.90;;;10.52;100.00;97123.22;4917962;29;20417;-75
2023/05/01 06:25:15;;;;;;;13.18;9.98;;;11.30;99.90;;;10.60;100.00;97128.78;4917792;29;20413;-75
2023/05/01 06:27:41;;;;;;;12.70;10.10;;;11.40;99.90;;;10.69;100.00;97124.59;4917761;29;20413;-74
2023/05/01 06:30:09;;;;;;;13.75;10.13;;;11.50;99.90;;;10.79;100.00;97132.59;4917683;29;20439;-74
2023/05/01 06:32:35;;;;;;;12.52;9.93;;;11.60;99.90;;;10.91;100.00;97121.78;4918054;29;20421;-74
2023/05/01 06:35:01;;;;;;;11.75;9.75;;;11.70;99.90;;;10.98;100.00;97132.94;4917825;29;20432;-74
2023/05/01 06:37:27;;;;;;;12.90;9.00;;;11.80;99.90;;;11.06;100.00;97132.44;4917575;29;20669;-75
2023/05/01 06:39:53;;;;;;;11.30;9.13;;;11.90;99.90;;;11.15;100.00;97135.38;4917404;29;20440;-74
2023/05/01 06:42:20;;;;;;;9.75;8.25;;;11.90;99.90;;;11.23;100.00;97133.03;4917081;29;20413;-75
2023/05/01 06:44:46;;;;;;;12.68;9.88;;;12.10;99.90;;;11.32;100.00;97143.91;4917583;29;20428;-75
2023/05/01 06:47:12;;;;;;;10.63;9.53;;;12.10;99.90;;;11.38;100.00;97136.75;4915411;29;20994;-75
2023/05/01 06:49:38;;;;;;;10.88;8.50;;;12.20;99.90;;;11.44;100.00;97138.34;4916955;29;20498;-76
2023/05/01 06:52:04;;;;;;;10.32;8.80;;;12.20;99.90;;;11.49;100.00;97139.19;4931992;29;20509;-75
2023/05/01 06:54:30;;;;;;;11.50;9.18;;;12.30;99.90;;;11.55;100.00;97145.28;4917318;29;20421;-75
2023/05/01 06:56:56;;;;;;;11.68;9.55;;;12.30;99.90;;;11.57;100.00;97148.47;4911021;29;20413;-75
2023/05/01 06:59:24;;;;;;;10.40;8.90;;;12.30;99.90;;;11.64;100.00;97149.81;4915545;29;20488;-75
2023/05/01 07:01:50;;;;;;;10.73;9.02;;;12.40;99.90;;;11.72;100.00;97147.69;4911208;29;20761;-75
2023/05/01 07:04:16;;;;;;;10.50;9.15;;;12.50;99.90;;;11.82;100.00;97148.53;4908001;29;20486;-74
2023/05/01 07:06:42;;;;;;;9.60;8.02;;;12.60;99.90;;;11.94;100.00;97150.94;4910464;29;20951;-75
2023/05/01 07:09:08;;;;;;;12.05;9.48;;;12.70;99.90;;;11.94;100.00;97141.13;4910153;29;20421;-75
2023/05/01 07:11:34;;;;;;;13.70;10.68;;;12.70;99.90;;;11.87;100.00;97151.19;4909099;29;20456;-74
2023/05/01 07:14:00;;;;;;;13.82;10.30;;;12.70;99.90;;;11.89;100.00;97149.06;4916315;29;20417;-74
2023/05/01 07:16:27;;;;;;;14.77;9.35;;;12.70;99.90;;;11.82;100.00;97155.69;4914467;29;20880;-75
2023/05/01 07:18:53;;;;;;;10.05;8.05;;;12.60;99.90;;;11.54;100.00;97151.66;4910813;29;20420;-74
2023/05/01 07:21:19;;;;;;;11.80;8.10;;;12.30;99.90;;;11.41;100.00;97147.66;4925053;29;20425;-75
2023/05/01 07:23:45;;;;;;;11.35;8.05;;;12.20;99.90;;;11.41;100.00;97149.50;4916186;29;20425;-74
2023/05/01 07:26:11;;;;;;;11.23;8.13;;;12.10;99.90;;;11.36;100.00;97147.63;4915933;29;20413;-74
2023/05/01 07:28:37;;;;;;;8.65;7.75;;;12.10;99.90;;;11.51;100.00;97141.56;4910222;29;20421;-75
2023/05/01 07:31:03;;;;;;;10.77;8.48;;;12.30;99.90;;;11.67;100.00;97137.06;4915242;29;20920;-76
2023/05/01 07:33:31;;;;;;;11.77;8.43;;;12.40;99.90;;;11.84;100.00;97138.44;4908669;29;20440;-75
2023/05/01 07:35:56;;;;;;;10.90;8.82;;;12.60;99.90;;;11.99;100.00;97140.31;4913143;29;20445;-75
2023/05/01 07:38:22;;;;;;;13.32;10.02;;;12.70;99.90;;;12.02;100.00;97145.09;4905650;29;20477;-75
2023/05/01 07:40:52;;;;;;;12.55;8.95;;;12.80;99.90;;;12.13;100.00;97141.38;4912610;29;20577;-75
2023/05/01 07:43:18;;;;;;;10.88;8.27;;;12.90;99.90;;;12.30;100.00;97136.56;4913150;29;20417;-73
2023/05/01 07:45:54;;;;;;;10.95;8.40;;;13.10;99.90;;;12.46;100.00;97128.59;4913772;29;20420;-74
2023/05/01 07:48:20;;;;;;;10.10;7.93;;;13.20;99.90;;;12.62;100.00;97133.59;4906917;29;20784;-74
2023/05/01 07:50:48;;;;;;;9.07;7.70;;;13.30;99.90;;;12.71;100.00;97142.56;4907095;29;20469;-75
2023/05/01 07:53:14;;;;;;;8.98;7.70;;;13.50;99.90;;;12.76;100.00;97134.63;4906271;29;20426;-75
2023/05/01 07:55:40;;;;;;;11.95;9.63;;;13.50;99.90;;;12.69;100.00;97134.09;4907244;29;20514;-74
2023/05/01 07:58:06;;;;;;;10.77;9.00;;;13.50;99.90;;;12.73;100.00;97132.50;4909617;29;20437;-74
2023/05/01 08:00:32;;;;;;;10.50;8.50;;;13.50;99.90;;;12.73;100.00;97124.53;4915663;29;20796;-77
2023/05/01 08:02:58;;;;;;;9.02;7.93;;;13.50;99.90;;;12.80;100.00;97121.56;4911521;29;20436;-77
2023/05/01 08:05:24;;;;;;;19.57;12.83;;;13.50;99.90;;;12.80;100.00;97127.69;4915507;29;20900;-77
2023/05/01 08:07:51;;;;;;;11.83;9.00;;;13.50;99.90;;;12.72;100.00;97124.78;4916205;29;20420;-75
2023/05/01 08:10:17;;;;;;;14.23;10.30;;;13.50;99.90;;;12.67;100.00;97117.63;4916045;29;20436;-76
2023/05/01 08:12:43;;;;;;;12.20;9.50;;;13.40;99.90;;;12.73;100.00;97121.88;4916228;29;20421;-76
2023/05/01 08:15:09;;;;;;;11.48;8.85;;;13.50;99.90;;;12.73;100.00;97123.72;4908461;29;20423;-76
2023/05/01 08:17:35;;;;;;;11.07;7.80;;;13.50;99.90;;;12.63;100.00;97123.78;4912030;29;20509;-74
2023/05/01 08:20:02;;;;;;;11.23;7.20;;;13.40;99.90;;;12.60;100.00;97119.00;4914207;29;20406;-75
2023/05/01 08:22:28;;;;;;;8.18;6.53;;;13.30;99.90;;;12.62;100.00;97122.19;4912892;29;20884;-76
2023/05/01 08:24:55;;;;;;;11.35;7.53;;;13.30;99.90;;;12.64;100.00;97115.50;4907488;29;20421;-76
2023/05/01 08:27:21;;;;;;;9.93;6.50;;;13.30;99.90;;;12.84;100.00;97116.53;4911828;29;20468;-75
2023/05/01 08:29:47;;;;;;;10.82;7.20;;;13.50;99.90;;;12.91;100.00;97117.03;4909705;29;21065;-76
2023/05/01 08:32:13;;;;;;;8.82;6.38;;;13.60;99.90;;;13.16;100.00;97116.91;4906290;29;20415;-75
2023/05/01 08:34:39;;;;;;;7.22;6.03;;;13.90;99.90;;;13.35;100.00;97117.91;4908516;29;20895;-77
2023/05/01 08:37:05;;;;;;;8.53;6.47;;;14.00;99.90;;;13.61;100.00;97112.44;4904529;29;20589;-77
2023/05/01 08:39:31;;;;;;;7.65;6.18;;;14.30;99.90;;;13.61;100.00;97115.84;4898300;29;20446;-77
2023/05/01 08:41:59;;;;;;;7.15;5.82;;;14.30;99.90;;;13.65;100.00;97114.25;4898454;29;20415;-76
2023/05/01 08:44:25;;;;;;;8.47;6.37;;;14.30;99.90;;;13.87;100.00;97108.50;4906819;29;20480;-78
2023/05/01 08:47:05;;;;;;;9.90;5.75;;;14.50;99.90;;;13.85;100.00;97110.63;4902569;29;20418;-77
2023/05/01 08:49:33;;;;;;;8.15;5.50;;;14.60;99.90;;;13.96;100.00;97104.16;4913554;29;20411;-77
2023/05/01 08:52:01;;;;;;;8.45;5.85;;;14.60;99.90;;;14.10;100.00;97106.97;4902443;29;20436;-77
2023/05/01 08:54:30;;;;;;;5.05;4.30;;;14.70;99.90;;;14.21;100.00;97106.59;4905128;29;20407;-77
2023/05/01 08:57:03;;;;;;;7.93;5.55;;;14.80;99.90;;;14.36;100.00;97108.31;4910681;29;20457;-77
2023/05/01 08:59:30;;;;;;;8.80;5.85;;;15.00;99.90;;;14.55;100.00;97111.88;4900897;29;21012;-76
2023/05/01 09:02:00;;;;;;;6.55;5.13;;;15.20;99.90;;;14.60;100.00;97113.69;4909106;29;20510;-76
2023/05/01 09:04:31;;;;;;;5.35;4.57;;;15.30;99.90;;;14.84;100.00;97108.34;4913075;29;20406;-77
2023/05/01 09:06:59;;;;;;;5.30;4.40;;;15.40;99.90;;;14.87;100.00;97116.59;4923234;29;20659;-76
2023/05/01 09:09:25;;;;;;;9.00;5.65;;;15.60;99.90;;;15.11;100.00;97122.66;4904154;29;20791;-76
2023/05/01 09:11:52;;;;;;;5.80;4.83;;;15.70;99.90;;;15.19;100.00;97118.56;4908621;29;20415;-75
2023/05/01 09:14:20;;;;;;;7.50;5.10;;;15.80;99.90;;;15.15;100.00;97120.25;4909933;29;20413;-75
2023/05/01 09:16:45;;;;;;;7.78;5.10;;;15.90;99.90;;;15.11;100.00;97122.66;4899043;29;20759;-75
2023/05/01 09:19:11;;;;;;;8.77;5.65;;;15.80;99.90;;;15.22;100.00;97120.69;4897447;29;20430;-75
2023/05/01 09:21:37;;;;;;;6.18;4.72;;;15.90;99.90;;;15.24;100.00;97115.06;4910782;29;20416;-75
2023/05/01 09:24:04;;;;;;;6.70;5.13;;;15.90;99.90;;;15.17;100.00;97115.41;4903712;29;20418;-75
2023/05/01 09:26:33;;;;;;;8.50;4.90;;;15.80;99.90;;;15.13;100.00;97114.38;4909118;29;20417;-75
2023/05/01 09:28:59;;;;;;;11.05;7.80;;;15.80;99.90;;;15.12;100.00;97120.78;4908960;29;20417;-75
2023/05/01 09:31:28;;;;;;;6.37;4.97;;;15.80;99.90;;;15.05;100.00;97117.69;4911211;29;20769;-76
2023/05/01 09:33:56;;;;;;;6.40;4.72;;;15.70;99.90;;;15.21;100.00;97116.41;4909274;29;20421;-75
2023/05/01 09:36:26;;;;;;;5.20;4.10;;;15.80;99.90;;;15.32;100.00;97119.75;4906950;29;20404;-77
2023/05/01 09:38:52;;;;;;;4.90;3.65;;;15.90;99.90;;;15.57;100.00;97113.28;4915056;29;20413;-77
2023/05/01 09:41:22;;;;;;;6.85;4.47;;;16.20;99.90;;;15.87;100.00;97115.47;4911777;29;20409;-77
2023/05/01 09:43:53;;;;;;;6.35;4.40;;;16.40;99.90;;;16.18;100.00;97111.22;4908928;29;20426;-77
2023/05/01 09:46:21;;;;;;;7.00;5.22;;;16.70;99.90;;;16.44;100.00;97113.47;4912922;29;20824;-77
2023/05/01 09:48:57;;;;;;;6.75;4.60;;;17.00;99.90;;;16.67;100.00;97109.84;4914719;29;20500;-77
2023/05/01 09:51:25;;;;;;;5.70;4.15;;;17.30;99.90;;;16.80;100.00;97102.94;4918508;29;20429;-79
2023/05/01 09:53:53;;;;;;;4.97;4.18;;;17.40;99.90;;;16.79;100.00;97109.34;4922218;29;20441;-79
2023/05/01 09:56:22;;;;;;;5.75;4.78;;;17.40;99.90;;;16.77;100.00;97106.19;4920310;29;20413;-82
2023/05/01 09:58:50;;;;;;;7.32;5.25;;;17.30;99.90;;;16.66;100.00;97104.81;4930672;29;20412;-79
2023/05/01 10:01:17;;;;;;;5.63;4.57;;;17.30;99.90;;;16.58;100.00;97098.25;4921250;29;20432;-78
2023/05/01 10:03:44;;;;;;;5.57;4.50;;;17.20;99.90;;;16.54;100.00;97106.03;4915613;29;20447;-79
2023/05/01 10:06:24;;;;;;;5.45;4.35;;;17.10;99.90;;;16.51;100.00;97103.19;4930639;29;20530;-79
2023/05/01 10:08:50;;;;;;;5.25;4.28;;;17.10;99.90;;;16.54;100.00;97106.03;4913573;29;20499;-79
2023/05/01 10:11:16;;;;;;;4.90;4.40;;;17.10;99.90;;;16.60;100.00;97109.44;4914505;29;20436;-77
2023/05/01 10:13:42;;;;;;;6.00;4.78;;;17.20;99.90;;;16.68;100.00;97108.78;4910631;29;20508;-76